createdAt,value
2017-08-14T00:01:39.527Z,15.34
2017-08-14T00:04:06.962Z,15.09
2017-08-14T00:06:34.431Z,15.20
2017-08-14T00:09:01.895Z,15.12
2017-08-14T00:11:29.375Z,14.96
2017-08-14T00:13:56.840Z,15.08
2017-08-14T00:16:24.382Z,15.06
2017-08-14T00:18:51.842Z,14.94
2017-08-14T00:21:19.298Z,14.88
2017-08-14T00:23:46.859Z,14.82
2017-08-14T00:26:14.315Z,14.93
2017-08-14T00:28:41.874Z,15.04
2017-08-14T00:31:09.310Z,14.95
2017-08-14T00:33:36.782Z,14.84
2017-08-14T00:36:04.222Z,14.73
2017-08-14T00:38:31.682Z,14.86
2017-08-14T00:40:59.118Z,14.71
2017-08-14T00:43:26.610Z,14.87
2017-08-14T00:45:54.067Z,14.90
2017-08-14T00:48:21.514Z,14.78
2017-08-14T00:50:49.191Z,14.76
2017-08-14T00:53:16.748Z,14.55
2017-08-14T00:55:44.212Z,14.72
2017-08-14T00:58:11.671Z,14.69
2017-08-14T01:00:39.175Z,14.77
2017-08-14T01:03:06.677Z,14.91
2017-08-14T01:05:34.192Z,14.72
2017-08-14T01:08:01.687Z,14.54
2017-08-14T01:10:29.144Z,14.51
2017-08-14T01:12:56.581Z,14.60
2017-08-14T01:15:24.050Z,14.38
2017-08-14T01:17:51.512Z,14.44
2017-08-14T01:20:18.985Z,14.42
2017-08-14T01:22:46.522Z,14.37
2017-08-14T01:25:13.966Z,14.43
2017-08-14T01:27:41.426Z,14.57
2017-08-14T01:30:08.900Z,14.49
2017-08-14T01:32:36.450Z,14.57
2017-08-14T01:35:03.934Z,14.51
2017-08-14T01:37:31.455Z,14.46
2017-08-14T01:39:59.135Z,14.48
2017-08-14T01:42:26.592Z,14.61
2017-08-14T01:44:54.615Z,14.58
2017-08-14T01:47:22.082Z,14.36
2017-08-14T01:49:49.527Z,14.31
2017-08-14T01:52:17.318Z,14.25
2017-08-14T01:54:44.800Z,14.26
2017-08-14T01:57:12.278Z,14.33
2017-08-14T01:59:39.734Z,14.22
2017-08-14T02:02:07.175Z,14.30
2017-08-14T02:04:35.066Z,14.21
2017-08-14T02:07:02.603Z,14.30
2017-08-14T02:09:30.142Z,14.15
2017-08-14T02:11:57.597Z,14.27
2017-08-14T02:14:25.083Z,14.17
2017-08-14T02:16:52.923Z,14.53
2017-08-14T02:19:20.380Z,14.38
2017-08-14T02:21:47.911Z,14.37
2017-08-14T02:24:15.379Z,14.40
2017-08-14T02:26:42.817Z,14.54
2017-08-14T02:29:10.322Z,14.46
2017-08-14T02:31:37.778Z,14.46
2017-08-14T02:34:05.329Z,14.47
2017-08-14T02:36:32.879Z,14.66
2017-08-14T02:39:00.393Z,14.48
2017-08-14T02:41:27.902Z,14.44
2017-08-14T02:43:55.334Z,14.55
2017-08-14T02:46:22.793Z,14.48
2017-08-14T02:48:50.271Z,14.56
2017-08-14T02:51:17.735Z,14.45
2017-08-14T02:53:45.279Z,14.27
2017-08-14T02:56:12.834Z,14.00
2017-08-14T02:58:40.290Z,14.02
2017-08-14T03:01:07.860Z,14.04
2017-08-14T03:03:35.312Z,14.22
2017-08-14T03:06:02.765Z,14.33
2017-08-14T03:08:30.360Z,14.37
2017-08-14T03:10:57.901Z,14.13
2017-08-14T03:13:25.400Z,14.25
2017-08-14T03:15:52.906Z,14.21
2017-08-14T03:18:20.358Z,14.30
2017-08-14T03:20:48.124Z,14.43
2017-08-14T03:23:15.674Z,14.44
2017-08-14T03:25:43.114Z,14.38
2017-08-14T03:28:10.593Z,14.30
2017-08-14T03:30:38.047Z,14.16
2017-08-14T03:33:05.521Z,14.17
2017-08-14T03:35:33.056Z,14.22
2017-08-14T03:38:00.499Z,14.23
2017-08-14T03:40:27.950Z,14.64
2017-08-14T03:42:55.389Z,14.49
2017-08-14T03:45:22.855Z,14.32
2017-08-14T03:47:50.352Z,14.17
2017-08-14T03:50:17.827Z,14.18
2017-08-14T03:52:45.368Z,13.88
2017-08-14T03:55:12.831Z,13.78
2017-08-14T03:57:40.291Z,13.66
2017-08-14T04:00:07.746Z,13.90
2017-08-14T04:02:35.227Z,14.00
2017-08-14T04:05:02.709Z,13.91
2017-08-14T04:07:30.150Z,14.08
2017-08-14T04:09:57.658Z,14.02
2017-08-14T04:12:25.123Z,14.09
2017-08-14T04:14:52.680Z,14.20
2017-08-14T04:17:20.147Z,14.16
2017-08-14T04:19:47.688Z,14.23
2017-08-14T04:22:15.141Z,14.22
2017-08-14T04:24:42.594Z,14.38
2017-08-14T04:27:10.175Z,14.42
2017-08-14T04:29:37.614Z,14.12
2017-08-14T04:32:05.101Z,14.35
2017-08-14T04:34:32.558Z,14.26
2017-08-14T04:37:00.032Z,14.27
2017-08-14T04:39:27.495Z,14.36
2017-08-14T04:41:55.008Z,14.30
2017-08-14T04:44:22.464Z,14.32
2017-08-14T04:46:50.023Z,14.36
2017-08-14T04:49:17.462Z,14.34
2017-08-14T04:51:44.990Z,14.25
2017-08-14T04:54:12.700Z,14.44
2017-08-14T04:56:40.170Z,14.43
2017-08-14T04:59:07.726Z,14.43
2017-08-14T05:01:35.171Z,14.37
2017-08-14T05:04:02.766Z,14.57
2017-08-14T05:06:30.291Z,14.61
2017-08-14T05:08:57.798Z,14.55
2017-08-14T05:11:25.304Z,14.48
2017-08-14T05:13:52.850Z,14.74
2017-08-14T05:16:20.292Z,14.66
2017-08-14T05:18:47.785Z,14.85
2017-08-14T05:21:15.244Z,14.89
2017-08-14T05:23:42.786Z,15.42
2017-08-14T05:26:10.266Z,15.93
2017-08-14T05:28:37.751Z,16.51
2017-08-14T05:31:05.250Z,16.54
2017-08-14T05:33:32.722Z,16.77
2017-08-14T05:36:00.183Z,16.86
2017-08-14T05:38:27.654Z,16.97
2017-08-14T05:40:55.345Z,17.44
2017-08-14T05:43:22.778Z,17.52
2017-08-14T05:45:50.357Z,17.62
2017-08-14T05:48:17.839Z,17.74
2017-08-14T05:50:45.323Z,17.30
2017-08-14T05:53:13.906Z,17.66
2017-08-14T05:55:41.371Z,17.80
2017-08-14T05:58:08.820Z,17.98
2017-08-14T06:00:36.386Z,17.77
2017-08-14T06:03:03.830Z,18.08
2017-08-14T06:05:31.318Z,17.73
2017-08-14T06:07:58.779Z,17.68
2017-08-14T06:10:26.306Z,17.83
2017-08-14T06:12:53.815Z,17.63
2017-08-14T06:15:21.263Z,17.83
2017-08-14T06:17:48.731Z,18.10
2017-08-14T06:20:16.191Z,18.28
2017-08-14T06:22:43.651Z,18.23
2017-08-14T06:25:11.138Z,18.49
2017-08-14T06:27:38.703Z,18.53
2017-08-14T06:30:06.164Z,18.51
2017-08-14T06:32:33.633Z,18.57
2017-08-14T06:35:01.077Z,18.43
2017-08-14T06:37:28.536Z,18.61
2017-08-14T06:39:56.087Z,18.33
2017-08-14T06:42:23.547Z,18.76
2017-08-14T06:44:51.003Z,18.29
2017-08-14T06:47:18.461Z,18.74
2017-08-14T06:49:46.014Z,18.04
2017-08-14T06:52:13.570Z,18.57
2017-08-14T06:54:41.005Z,18.43
2017-08-14T06:57:08.467Z,18.41
2017-08-14T06:59:35.916Z,18.13
2017-08-14T07:02:03.457Z,18.29
2017-08-14T07:04:32.119Z,18.39
2017-08-14T07:06:59.606Z,18.17
2017-08-14T07:09:27.097Z,18.24
2017-08-14T07:11:54.557Z,18.79
2017-08-14T07:14:22.110Z,18.87
2017-08-14T07:16:49.578Z,18.85
2017-08-14T07:19:17.125Z,18.86
2017-08-14T07:21:44.571Z,18.93
2017-08-14T07:24:12.142Z,18.94
2017-08-14T07:26:39.615Z,18.92
2017-08-14T07:29:07.082Z,18.82
2017-08-14T07:31:34.614Z,19.28
2017-08-14T07:34:02.077Z,19.07
2017-08-14T07:36:29.534Z,19.11
2017-08-14T07:38:56.994Z,19.01
2017-08-14T07:41:24.554Z,19.13
2017-08-14T07:43:52.108Z,19.29
2017-08-14T07:46:19.554Z,19.22
2017-08-14T07:48:47.295Z,19.27
2017-08-14T07:51:14.757Z,19.24
2017-08-14T07:53:42.224Z,19.25
2017-08-14T07:56:09.803Z,19.39
2017-08-14T07:58:37.252Z,19.53
2017-08-14T08:01:04.766Z,19.35
2017-08-14T08:03:32.272Z,19.68
2017-08-14T08:05:59.822Z,20.09
2017-08-14T08:08:27.283Z,19.58
2017-08-14T08:10:54.751Z,19.59
2017-08-14T08:13:22.294Z,19.43
2017-08-14T08:15:49.767Z,19.30
2017-08-14T08:18:17.310Z,19.30
2017-08-14T08:20:44.774Z,19.37
2017-08-14T08:23:12.328Z,19.35
2017-08-14T08:25:39.842Z,19.27
2017-08-14T08:28:07.343Z,19.30
2017-08-14T08:30:34.815Z,19.38
2017-08-14T08:33:02.280Z,19.49
2017-08-14T08:35:29.757Z,19.97
2017-08-14T08:37:57.191Z,19.94
2017-08-14T08:40:24.700Z,20.56
2017-08-14T08:42:52.171Z,20.34
2017-08-14T08:45:19.637Z,20.68
2017-08-14T08:47:47.130Z,20.82
2017-08-14T08:50:14.656Z,20.94
2017-08-14T08:52:42.210Z,21.07
2017-08-14T08:55:09.672Z,21.19
2017-08-14T08:57:37.128Z,21.23
2017-08-14T09:00:04.642Z,21.34
2017-08-14T09:02:32.150Z,21.55
2017-08-14T09:04:59.760Z,21.91
2017-08-14T09:07:27.260Z,21.97
2017-08-14T09:09:54.721Z,21.97
2017-08-14T09:12:22.178Z,22.60
2017-08-14T09:14:49.614Z,22.40
2017-08-14T09:17:17.086Z,22.73
2017-08-14T09:19:44.631Z,22.54
2017-08-14T09:22:12.099Z,22.64
2017-08-14T09:24:39.759Z,23.05
2017-08-14T09:27:07.327Z,23.42
2017-08-14T09:29:34.762Z,23.20
2017-08-14T09:32:02.253Z,23.15
2017-08-14T09:34:29.690Z,23.26
2017-08-14T09:36:57.203Z,23.89
2017-08-14T09:39:24.667Z,23.90
2017-08-14T09:41:52.119Z,24.32
2017-08-14T09:44:19.592Z,24.16
2017-08-14T09:46:47.028Z,23.96
2017-08-14T09:49:14.491Z,23.70
2017-08-14T09:51:41.934Z,23.78
2017-08-14T09:54:09.449Z,23.65
2017-08-14T09:56:36.903Z,24.05
2017-08-14T09:59:04.358Z,24.09
2017-08-14T10:01:31.827Z,24.18
2017-08-14T10:03:59.373Z,24.04
2017-08-14T10:06:26.813Z,24.17
2017-08-14T10:08:54.267Z,24.54
2017-08-14T10:11:21.734Z,24.63
2017-08-14T10:13:49.476Z,24.32
2017-08-14T10:16:17.308Z,24.73
2017-08-14T10:18:44.828Z,24.56
2017-08-14T10:21:15.068Z,24.19
2017-08-14T10:23:42.711Z,24.55
2017-08-14T10:26:10.155Z,24.86
2017-08-14T10:28:38.071Z,24.53
2017-08-14T10:31:05.550Z,24.91
2017-08-14T10:33:33.001Z,25.00
2017-08-14T10:36:00.474Z,25.37
2017-08-14T10:38:27.919Z,25.01
2017-08-14T10:40:55.492Z,24.89
2017-08-14T10:43:22.935Z,25.09
2017-08-14T10:45:50.394Z,25.03
2017-08-14T10:48:17.838Z,25.04
2017-08-14T10:50:45.343Z,24.81
2017-08-14T10:53:12.805Z,24.98
2017-08-14T10:55:40.267Z,25.20
2017-08-14T10:58:07.714Z,24.86
2017-08-14T11:00:35.175Z,24.75
2017-08-14T11:03:02.691Z,24.57
2017-08-14T11:05:30.648Z,24.64
2017-08-14T11:07:58.086Z,25.18
2017-08-14T11:10:25.576Z,24.99
2017-08-14T11:12:53.027Z,25.34
2017-08-14T11:15:20.476Z,25.20
2017-08-14T11:17:48.241Z,25.65
2017-08-14T11:20:15.691Z,24.99
2017-08-14T11:22:43.199Z,25.60
2017-08-14T11:25:10.644Z,25.86
2017-08-14T11:27:38.210Z,26.10
2017-08-14T11:30:05.655Z,25.79
2017-08-14T11:32:33.226Z,25.40
2017-08-14T11:35:00.687Z,25.02
2017-08-14T11:37:28.166Z,25.12
2017-08-14T11:39:55.694Z,25.62
2017-08-14T11:42:23.278Z,25.70
2017-08-14T11:44:50.723Z,25.77
2017-08-14T11:47:18.277Z,25.95
2017-08-14T11:49:45.839Z,25.77
2017-08-14T11:52:13.398Z,26.09
2017-08-14T11:54:41.078Z,26.20
2017-08-14T11:57:08.543Z,25.73
2017-08-14T11:59:35.987Z,25.93
2017-08-14T12:02:03.481Z,26.37
2017-08-14T12:04:30.983Z,26.30
2017-08-14T12:06:58.422Z,26.34
2017-08-14T12:09:25.900Z,26.34
2017-08-14T12:11:53.341Z,26.36
2017-08-14T12:14:20.808Z,26.81
2017-08-14T12:16:48.259Z,27.11
2017-08-14T12:19:15.720Z,27.31
2017-08-14T12:21:43.159Z,27.38
2017-08-14T12:24:10.631Z,27.42
2017-08-14T12:26:38.092Z,27.18
2017-08-14T12:29:05.654Z,27.15
2017-08-14T12:31:33.095Z,27.35
2017-08-14T12:34:00.669Z,27.39
2017-08-14T12:36:28.110Z,27.63
2017-08-14T12:38:55.577Z,27.92
2017-08-14T12:41:23.041Z,27.73
2017-08-14T12:43:50.797Z,27.29
2017-08-14T12:46:18.267Z,27.35
2017-08-14T12:48:45.711Z,27.28
2017-08-14T12:51:13.274Z,27.28
2017-08-14T12:53:40.834Z,27.57
2017-08-14T12:56:08.482Z,27.58
2017-08-14T12:58:35.926Z,27.52
2017-08-14T13:01:03.399Z,27.10
2017-08-14T13:03:30.830Z,26.83
2017-08-14T13:05:58.303Z,26.98
2017-08-14T13:08:26.012Z,26.68
2017-08-14T13:10:53.506Z,26.95
2017-08-14T13:13:20.995Z,26.98
2017-08-14T13:15:48.555Z,27.20
2017-08-14T13:18:16.166Z,27.43
2017-08-14T13:20:43.667Z,27.72
2017-08-14T13:23:11.124Z,27.80
2017-08-14T13:25:38.610Z,28.00
2017-08-14T13:28:06.062Z,27.98
2017-08-14T13:30:33.550Z,28.31
2017-08-14T13:33:00.991Z,28.31
2017-08-14T13:35:28.512Z,28.15
2017-08-14T13:37:55.971Z,27.99
2017-08-14T13:40:23.425Z,27.66
2017-08-14T13:42:50.984Z,28.23
2017-08-14T13:45:18.426Z,28.16
2017-08-14T13:47:45.882Z,27.96
2017-08-14T13:50:13.323Z,27.83
2017-08-14T13:52:40.782Z,27.89
2017-08-14T13:55:08.225Z,28.38
2017-08-14T13:57:35.791Z,28.56
2017-08-14T14:00:03.231Z,28.66
2017-08-14T14:02:30.695Z,28.53
2017-08-14T14:04:58.187Z,27.90
2017-08-14T14:07:25.652Z,27.75
2017-08-14T14:09:53.094Z,28.11
2017-08-14T14:12:20.558Z,28.16
2017-08-14T14:14:47.999Z,28.28
2017-08-14T14:17:16.298Z,27.60
2017-08-14T14:19:43.867Z,27.84
2017-08-14T14:22:11.311Z,27.63
2017-08-14T14:24:38.774Z,27.80
2017-08-14T14:27:06.219Z,27.78
2017-08-14T14:29:33.680Z,28.04
2017-08-14T14:32:01.233Z,27.92
2017-08-14T14:34:28.691Z,28.09
2017-08-14T14:36:56.139Z,27.73
2017-08-14T14:39:23.703Z,27.79
2017-08-14T14:41:51.158Z,27.88
2017-08-14T14:44:18.726Z,27.72
2017-08-14T14:46:46.189Z,28.08
2017-08-14T14:49:13.650Z,27.88
2017-08-14T14:51:41.210Z,27.95
2017-08-14T14:54:08.751Z,27.98
2017-08-14T14:56:36.192Z,28.18
2017-08-14T14:59:03.716Z,28.22
2017-08-14T15:01:31.195Z,28.15
2017-08-14T15:03:58.991Z,28.10
2017-08-14T15:06:26.435Z,28.08
2017-08-14T15:08:53.905Z,27.82
2017-08-14T15:11:21.376Z,27.62
2017-08-14T15:13:48.974Z,27.59
2017-08-14T15:16:16.478Z,27.62
2017-08-14T15:18:44.038Z,27.50
2017-08-14T15:21:11.494Z,27.43
2017-08-14T15:23:38.939Z,27.59
2017-08-14T15:26:06.403Z,27.57
2017-08-14T15:28:33.850Z,27.89
2017-08-14T15:31:01.358Z,27.99
2017-08-14T15:33:28.879Z,28.06
2017-08-14T15:35:56.346Z,27.95
2017-08-14T15:38:23.793Z,28.00
2017-08-14T15:40:51.342Z,28.27
2017-08-14T15:43:18.777Z,28.28
2017-08-14T15:45:46.237Z,28.43
2017-08-14T15:48:13.686Z,28.23
2017-08-14T15:50:41.163Z,28.16
2017-08-14T15:53:08.642Z,28.39
2017-08-14T15:55:36.083Z,28.21
2017-08-14T15:58:03.597Z,28.10
2017-08-14T16:00:31.047Z,28.24
2017-08-14T16:02:58.560Z,28.13
2017-08-14T16:05:26.113Z,27.93
2017-08-14T16:07:53.574Z,27.81
2017-08-14T16:10:21.136Z,27.95
2017-08-14T16:12:48.696Z,27.79
2017-08-14T16:15:16.250Z,27.81
2017-08-14T16:17:43.817Z,27.87
2017-08-14T16:20:11.253Z,27.80
2017-08-14T16:22:38.718Z,27.87
2017-08-14T16:25:06.201Z,28.05
2017-08-14T16:27:33.657Z,27.61
2017-08-14T16:30:01.094Z,27.76
2017-08-14T16:32:28.576Z,27.78
2017-08-14T16:34:56.094Z,27.79
2017-08-14T16:37:23.575Z,27.72
2017-08-14T16:39:51.114Z,27.63
2017-08-14T16:42:18.554Z,27.55
2017-08-14T16:44:46.138Z,27.54
2017-08-14T16:47:13.621Z,27.43
2017-08-14T16:49:41.162Z,27.39
2017-08-14T16:52:08.619Z,27.44
2017-08-14T16:54:36.174Z,27.26
2017-08-14T16:57:03.635Z,27.25
2017-08-14T16:59:31.198Z,27.23
2017-08-14T17:01:58.659Z,27.37
2017-08-14T17:04:26.296Z,27.46
2017-08-14T17:06:53.809Z,27.46
2017-08-14T17:09:21.315Z,27.44
2017-08-14T17:11:48.889Z,27.46
2017-08-14T17:14:16.382Z,27.38
2017-08-14T17:16:43.854Z,27.28
2017-08-14T17:19:11.314Z,27.26
2017-08-14T17:21:38.809Z,27.37
2017-08-14T17:24:06.274Z,27.32
2017-08-14T17:26:33.732Z,27.26
2017-08-14T17:29:01.289Z,27.22
2017-08-14T17:31:30.078Z,27.06
2017-08-14T17:33:57.672Z,26.98
2017-08-14T17:36:25.189Z,26.94
2017-08-14T17:38:52.662Z,26.89
2017-08-14T17:41:20.195Z,26.87
2017-08-14T17:43:47.634Z,26.83
2017-08-14T17:46:15.114Z,26.93
2017-08-14T17:48:42.559Z,26.68
2017-08-14T17:51:10.031Z,26.59
2017-08-14T17:53:37.639Z,26.45
2017-08-14T17:56:05.102Z,26.40
2017-08-14T17:58:32.543Z,26.26
2017-08-14T18:01:00.051Z,26.21
2017-08-14T18:03:27.608Z,26.01
2017-08-14T18:05:55.674Z,25.98
2017-08-14T18:08:23.127Z,25.92
2017-08-14T18:10:50.907Z,25.69
2017-08-14T18:13:18.459Z,25.55
2017-08-14T18:15:45.894Z,25.52
2017-08-14T18:18:13.672Z,25.45
2017-08-14T18:20:41.143Z,25.28
2017-08-14T18:23:08.610Z,25.10
2017-08-14T18:25:36.149Z,24.81
2017-08-14T18:28:03.614Z,24.70
2017-08-14T18:30:31.069Z,24.64
2017-08-14T18:32:58.534Z,24.48
2017-08-14T18:35:25.975Z,24.48
2017-08-14T18:37:53.526Z,24.41
2017-08-14T18:40:20.986Z,24.41
2017-08-14T18:42:48.642Z,24.22
2017-08-14T18:45:16.088Z,24.03
2017-08-14T18:47:43.662Z,24.20
2017-08-14T18:50:11.120Z,24.16
2017-08-14T18:52:38.574Z,24.12
2017-08-14T18:55:06.088Z,24.19
2017-08-14T18:57:33.551Z,24.07
2017-08-14T19:00:00.994Z,24.09
2017-08-14T19:02:28.503Z,24.02
2017-08-14T19:04:55.958Z,23.91
2017-08-14T19:07:23.804Z,23.69
2017-08-14T19:09:51.925Z,23.38
2017-08-14T19:12:18.630Z,23.23
2017-08-14T19:14:46.067Z,23.25
2017-08-14T19:17:13.851Z,22.96
2017-08-14T19:19:41.394Z,23.02
2017-08-14T19:22:08.862Z,23.24
2017-08-14T19:24:36.316Z,23.15
2017-08-14T19:27:03.759Z,22.96
2017-08-14T19:29:31.215Z,22.91
2017-08-14T19:31:59.642Z,22.92
2017-08-14T19:34:27.099Z,23.01
2017-08-14T19:36:54.563Z,22.95
2017-08-14T19:39:22.075Z,22.79
2017-08-14T19:41:49.537Z,22.81
2017-08-14T19:44:17.108Z,22.78
2017-08-14T19:46:44.720Z,22.74
2017-08-14T19:49:12.217Z,22.61
2017-08-14T19:51:39.678Z,22.37
2017-08-14T19:54:07.133Z,22.19
2017-08-14T19:56:34.570Z,22.14
2017-08-14T19:59:02.026Z,22.11
2017-08-14T20:01:29.466Z,22.01
2017-08-14T20:03:56.961Z,21.90
2017-08-14T20:06:24.434Z,21.94
2017-08-14T20:08:52.033Z,21.87
2017-08-14T20:11:19.503Z,21.82
2017-08-14T20:13:46.990Z,21.81
2017-08-14T20:16:14.459Z,21.81
2017-08-14T20:18:42.002Z,21.78
2017-08-14T20:21:09.454Z,21.73
2017-08-14T20:23:36.892Z,21.55
2017-08-14T20:26:04.386Z,21.53
2017-08-14T20:28:31.830Z,21.29
2017-08-14T20:30:59.295Z,21.29
2017-08-14T20:33:26.847Z,21.19
2017-08-14T20:35:54.432Z,21.20
2017-08-14T20:38:21.958Z,21.27
2017-08-14T20:40:49.680Z,21.13
2017-08-14T20:43:17.123Z,20.92
2017-08-14T20:45:44.578Z,20.96
2017-08-14T20:48:12.062Z,20.99
2017-08-14T20:50:39.557Z,20.83
2017-08-14T20:53:07.017Z,20.88
2017-08-14T20:55:34.462Z,20.65
2017-08-14T20:58:02.027Z,20.57
2017-08-14T21:00:29.470Z,20.70
2017-08-14T21:02:57.034Z,20.79
2017-08-14T21:05:24.495Z,20.68
2017-08-14T21:07:52.057Z,20.57
2017-08-14T21:10:19.499Z,20.42
2017-08-14T21:12:47.258Z,20.29
2017-08-14T21:15:14.698Z,20.27
2017-08-14T21:17:42.191Z,20.50
2017-08-14T21:20:09.755Z,20.17
2017-08-14T21:22:37.467Z,20.39
2017-08-14T21:25:04.931Z,20.34
2017-08-14T21:27:32.403Z,20.26
2017-08-14T21:29:59.858Z,20.29
2017-08-14T21:32:27.293Z,20.12
2017-08-14T21:34:55.607Z,19.96
2017-08-14T21:37:23.073Z,19.79
2017-08-14T21:39:50.537Z,19.76
2017-08-14T21:42:18.075Z,19.74
2017-08-14T21:44:45.645Z,19.65
2017-08-14T21:47:13.082Z,19.73
2017-08-14T21:49:40.550Z,19.63
2017-08-14T21:52:07.987Z,19.91
2017-08-14T21:54:35.442Z,19.75
2017-08-14T21:57:02.902Z,19.83
2017-08-14T21:59:30.412Z,19.65
2017-08-14T22:01:57.995Z,19.47
2017-08-14T22:04:25.498Z,19.65
2017-08-14T22:06:52.954Z,19.40
2017-08-14T22:09:20.413Z,19.29
2017-08-14T22:11:47.860Z,19.44
2017-08-14T22:14:15.415Z,19.20
2017-08-14T22:16:42.860Z,19.29
2017-08-14T22:19:10.319Z,19.23
2017-08-14T22:21:37.786Z,19.31
2017-08-14T22:24:05.562Z,19.29
2017-08-14T22:26:32.997Z,19.02
2017-08-14T22:29:00.440Z,18.97
2017-08-14T22:31:27.907Z,19.14
2017-08-14T22:33:55.347Z,19.27
2017-08-14T22:36:22.843Z,19.33
2017-08-14T22:38:50.400Z,19.19
2017-08-14T22:41:17.854Z,19.03
2017-08-14T22:43:45.294Z,18.62
2017-08-14T22:46:12.777Z,18.85
2017-08-14T22:48:40.331Z,18.95
2017-08-14T22:51:07.787Z,18.90
2017-08-14T22:53:35.342Z,18.76
2017-08-14T22:56:02.803Z,18.78
2017-08-14T22:58:30.238Z,18.59
2017-08-14T23:00:57.706Z,18.85
2017-08-14T23:03:25.166Z,18.85
2017-08-14T23:05:52.623Z,18.77
2017-08-14T23:08:20.062Z,18.74
2017-08-14T23:10:47.542Z,18.45
2017-08-14T23:13:14.982Z,18.46
2017-08-14T23:15:42.550Z,18.67
2017-08-14T23:18:10.055Z,18.48
2017-08-14T23:20:37.519Z,18.26
2017-08-14T23:23:05.022Z,18.36
2017-08-14T23:25:32.786Z,18.43
2017-08-14T23:28:00.241Z,18.57
2017-08-14T23:30:27.684Z,18.45
2017-08-14T23:32:55.148Z,18.44
2017-08-14T23:35:22.626Z,18.30
2017-08-14T23:37:50.155Z,18.37
2017-08-14T23:40:17.607Z,18.23
2017-08-14T23:42:45.091Z,18.16
2017-08-14T23:45:12.641Z,18.31
2017-08-14T23:47:40.120Z,18.30
2017-08-14T23:50:07.658Z,18.22
2017-08-14T23:52:35.220Z,18.12
2017-08-14T23:55:02.791Z,17.79
2017-08-14T23:57:30.336Z,17.69
2017-08-14T23:59:57.899Z,17.45
